createdAt,value
2023-10-20T00:00:14.764Z,16.4
2023-10-20T00:01:14.425Z,16.3
2023-10-20T00:02:14.828Z,16.4
2023-10-20T00:03:14.311Z,16.5
2023-10-20T00:04:14.156Z,16.5
2023-10-20T00:05:14.638Z,16.4
2023-10-20T00:06:14.146Z,16.4
2023-10-20T00:07:14.158Z,16.5
2023-10-20T00:08:14.960Z,16.5
2023-10-20T00:09:14.674Z,16.5
2023-10-20T00:10:14.990Z,16.6
2023-10-20T00:11:14.213Z,16.6
2023-10-20T00:12:14.157Z,16.6
2023-10-20T00:13:14.956Z,16.6
2023-10-20T00:14:14.168Z,16.4
2023-10-20T00:15:14.167Z,16.5
2023-10-20T00:16:14.737Z,16.6
2023-10-20T00:17:14.461Z,16.5
2023-10-20T00:18:14.663Z,16.6
2023-10-20T00:19:14.548Z,16.7
2023-10-20T00:20:13.728Z,16.6
2023-10-20T00:21:14.564Z,16.5
2023-10-20T00:22:14.162Z,16.4
2023-10-20T00:23:14.690Z,16.5
2023-10-20T00:24:14.143Z,16.4
2023-10-20T00:25:14.142Z,16.5
2023-10-20T00:26:14.180Z,16.5
2023-10-20T00:27:14.394Z,16.5
2023-10-20T00:28:14.310Z,16.5
2023-10-20T00:29:14.447Z,16.5
2023-10-20T00:30:14.461Z,16.4
2023-10-20T00:31:14.223Z,16.5
2023-10-20T00:32:14.557Z,16.5
2023-10-20T00:33:14.432Z,16.6
2023-10-20T00:34:14.166Z,16.6
2023-10-20T00:35:14.237Z,16.5
2023-10-20T00:36:14.549Z,16.5
2023-10-20T00:37:14.144Z,16.5
2023-10-20T00:38:14.458Z,16.5
2023-10-20T00:39:14.150Z,16.5
2023-10-20T00:40:14.896Z,16.6
2023-10-20T00:41:14.186Z,16.5
2023-10-20T00:42:14.182Z,16.4
2023-10-20T00:43:14.491Z,16.4
2023-10-20T00:44:14.253Z,16.5
2023-10-20T00:45:14.486Z,16.5
2023-10-20T00:46:14.877Z,16.5
2023-10-20T00:47:14.824Z,16.5
2023-10-20T00:48:14.178Z,16.5
2023-10-20T00:49:14.473Z,16.4
2023-10-20T00:50:13.792Z,16.4
2023-10-20T00:51:14.161Z,16.5
2023-10-20T00:52:14.147Z,16.6
2023-10-20T00:53:14.904Z,16.5
2023-10-20T00:54:14.158Z,16.6
2023-10-20T00:55:14.160Z,16.5
2023-10-20T00:56:14.791Z,16.5
2023-10-20T00:58:14.175Z,16.5
2023-10-20T00:59:14.748Z,16.4
2023-10-20T01:00:14.187Z,16.3
2023-10-20T01:01:14.196Z,16.4
2023-10-20T01:02:14.419Z,16.4
2023-10-20T01:03:13.339Z,16.5
2023-10-20T01:04:15.173Z,16.4
2023-10-20T01:05:14.342Z,16.5
2023-10-20T01:06:14.299Z,16.5
2023-10-20T01:07:14.170Z,16.5
2023-10-20T01:08:14.989Z,16.5
2023-10-20T01:09:14.306Z,16.5
2023-10-20T01:10:14.744Z,16.4
2023-10-20T01:11:14.657Z,16.5
2023-10-20T01:12:14.163Z,16.5
2023-10-20T01:13:14.754Z,16.4
2023-10-20T01:14:13.259Z,16.4
2023-10-20T01:15:14.173Z,16.5
2023-10-20T01:16:14.205Z,16.4
2023-10-20T01:17:14.930Z,16.5
2023-10-20T01:18:14.193Z,16.4
2023-10-20T01:19:14.162Z,16.5
2023-10-20T01:20:13.286Z,16.3
2023-10-20T01:21:14.632Z,16.4
2023-10-20T01:22:14.327Z,16.4
2023-10-20T01:23:14.700Z,16.5
2023-10-20T01:24:14.909Z,16.5
2023-10-20T01:25:14.162Z,16.5
2023-10-20T01:26:14.200Z,16.6
2023-10-20T01:27:14.739Z,16.6
2023-10-20T01:28:14.156Z,16.5
2023-10-20T01:29:14.177Z,16.5
2023-10-20T01:30:14.633Z,16.5
2023-10-20T01:31:14.222Z,16.5
2023-10-20T01:32:14.184Z,16.6
2023-10-20T01:33:15.163Z,16.5
2023-10-20T01:34:14.285Z,16.5
2023-10-20T01:35:14.206Z,16.4
2023-10-20T01:36:14.554Z,16.5
2023-10-20T01:37:14.169Z,16.6
2023-10-20T01:38:14.380Z,16.5
2023-10-20T01:39:14.169Z,16.5
2023-10-20T01:40:14.161Z,16.4
2023-10-20T01:41:14.180Z,16.4
2023-10-20T01:42:14.327Z,16.4
2023-10-20T01:43:14.180Z,16.4
2023-10-20T01:44:14.679Z,16.5
2023-10-20T01:45:14.172Z,16.5
2023-10-20T01:46:14.959Z,16.6
2023-10-20T01:47:14.754Z,16.5
2023-10-20T01:48:14.186Z,16.6
2023-10-20T01:49:14.173Z,16.5
2023-10-20T01:50:13.617Z,16.5
2023-10-20T01:51:14.171Z,16.6
2023-10-20T01:52:14.325Z,16.5
2023-10-20T01:53:14.188Z,16.5
2023-10-20T01:54:14.185Z,16.5
2023-10-20T01:55:14.267Z,16.5
2023-10-20T01:56:14.246Z,16.3
2023-10-20T01:57:14.167Z,16.4
2023-10-20T01:58:14.694Z,16.4
2023-10-20T01:59:14.366Z,16.4
2023-10-20T02:00:15.152Z,16.4
2023-10-20T02:01:14.676Z,16.4
2023-10-20T02:02:14.898Z,16.3
2023-10-20T02:03:14.776Z,16.5
2023-10-20T02:04:14.849Z,16.3
2023-10-20T02:05:14.683Z,16.3
2023-10-20T02:06:14.184Z,16.3
2023-10-20T02:07:14.775Z,16.4
2023-10-20T02:08:14.653Z,16.4
2023-10-20T02:09:14.190Z,16.4
2023-10-20T02:10:14.174Z,16.2
2023-10-20T02:11:14.481Z,16.4
2023-10-20T02:12:14.384Z,16.2
2023-10-20T02:13:14.192Z,16.1
2023-10-20T02:14:14.844Z,16.2
2023-10-20T02:15:14.329Z,16.3
2023-10-20T02:16:14.412Z,16.2
2023-10-20T02:17:14.585Z,16.2
2023-10-20T02:18:14.471Z,16.2
2023-10-20T02:19:14.674Z,16.1
2023-10-20T02:20:14.074Z,16.2
2023-10-20T02:21:14.900Z,16.2
2023-10-20T02:23:14.590Z,16.3
2023-10-20T02:24:14.603Z,16.2
2023-10-20T02:25:14.581Z,16.3
2023-10-20T02:26:14.194Z,16.3
2023-10-20T02:27:14.762Z,16.3
2023-10-20T02:28:14.232Z,16.2
2023-10-20T02:29:14.462Z,16.4
2023-10-20T02:30:14.184Z,16.3
2023-10-20T02:31:14.245Z,16.3
2023-10-20T02:32:14.238Z,16.3
2023-10-20T02:33:14.262Z,16.2
2023-10-20T02:34:14.184Z,16.3
2023-10-20T02:35:14.879Z,16.4
2023-10-20T02:36:14.175Z,16.3
2023-10-20T02:37:15.110Z,16.3
2023-10-20T02:38:14.230Z,16.3
2023-10-20T02:39:14.191Z,16.2
2023-10-20T02:40:14.604Z,16.3
2023-10-20T02:41:14.754Z,16.2
2023-10-20T02:42:14.190Z,16.1
2023-10-20T02:43:16.054Z,16
2023-10-20T02:44:14.204Z,16
2023-10-20T02:45:14.189Z,16.1
2023-10-20T02:46:15.087Z,16.1
2023-10-20T02:47:15.109Z,16.2
2023-10-20T02:48:14.269Z,16.2
2023-10-20T02:49:14.172Z,16.1
2023-10-20T02:50:13.287Z,16.2
2023-10-20T02:51:14.790Z,16.3
2023-10-20T02:52:14.496Z,16.3
2023-10-20T02:53:15.013Z,16.2
2023-10-20T02:54:14.825Z,16.1
2023-10-20T02:55:14.723Z,16.2
2023-10-20T02:56:14.328Z,16.1
2023-10-20T02:57:14.196Z,16.2
2023-10-20T02:58:14.551Z,16.2
2023-10-20T02:59:14.542Z,16.1
2023-10-20T03:00:14.196Z,16.2
2023-10-20T03:01:14.245Z,16.2
2023-10-20T03:02:14.307Z,16.2
2023-10-20T03:03:14.327Z,16.1
2023-10-20T03:04:14.237Z,16.1
2023-10-20T03:05:14.839Z,16.1
2023-10-20T03:06:14.192Z,16.2
2023-10-20T03:07:14.844Z,16.2
2023-10-20T03:08:14.324Z,16.2
2023-10-20T03:09:14.169Z,16.1
2023-10-20T03:10:14.186Z,16.3
2023-10-20T03:11:15.015Z,16.2
2023-10-20T03:12:14.563Z,16.2
2023-10-20T03:13:14.537Z,16.2
2023-10-20T03:14:14.238Z,16.3
2023-10-20T03:15:14.195Z,16.2
2023-10-20T03:16:14.737Z,16.2
2023-10-20T03:17:14.238Z,16.2
2023-10-20T03:18:14.841Z,16.3
2023-10-20T03:19:14.205Z,16.3
2023-10-20T03:20:14.212Z,16.2
2023-10-20T03:21:14.187Z,16.3
2023-10-20T03:22:14.564Z,16.4
2023-10-20T03:23:14.223Z,16.4
2023-10-20T03:24:15.092Z,16.3
2023-10-20T03:25:14.209Z,16.4
2023-10-20T03:26:14.674Z,16.3
2023-10-20T03:27:14.794Z,16.4
2023-10-20T03:28:14.925Z,16.4
2023-10-20T03:29:14.284Z,16.4
2023-10-20T03:30:14.197Z,16.5
2023-10-20T03:31:14.262Z,16.5
2023-10-20T03:32:14.223Z,16.5
2023-10-20T03:33:13.985Z,16.5
2023-10-20T03:34:14.172Z,16.5
2023-10-20T03:36:14.182Z,16.4
2023-10-20T03:37:14.453Z,16.4
2023-10-20T03:38:14.238Z,16.3
2023-10-20T03:39:14.556Z,16.3
2023-10-20T03:40:14.181Z,16.3
2023-10-20T03:41:14.593Z,16.3
2023-10-20T03:42:14.176Z,16.4
2023-10-20T03:43:14.196Z,16.4
2023-10-20T03:44:14.205Z,16.4
2023-10-20T03:45:14.193Z,16.4
2023-10-20T03:46:15.124Z,16.3
2023-10-20T03:47:14.198Z,16.4
2023-10-20T03:48:14.192Z,16.4
2023-10-20T03:49:14.194Z,16.3
2023-10-20T03:50:13.780Z,16.4
2023-10-20T03:51:14.411Z,16.3
2023-10-20T03:52:14.183Z,16.4
2023-10-20T03:53:14.469Z,16.4
2023-10-20T03:54:14.194Z,16.4
2023-10-20T03:55:14.198Z,16.4
2023-10-20T03:56:14.219Z,16.3
2023-10-20T03:57:14.304Z,16.2
2023-10-20T03:58:14.182Z,16.3
2023-10-20T03:59:14.634Z,16.3
2023-10-20T04:00:14.199Z,16.2
2023-10-20T04:01:14.922Z,16.3
2023-10-20T04:02:14.276Z,16.3
2023-10-20T04:03:14.940Z,16.2
2023-10-20T04:04:14.273Z,16.2
2023-10-20T04:05:16.250Z,16.1
2023-10-20T04:06:14.413Z,16.2
2023-10-20T04:07:14.349Z,16.3
2023-10-20T04:08:15.029Z,16.3
2023-10-20T04:09:14.687Z,16.4
2023-10-20T04:10:14.881Z,16.2
2023-10-20T04:11:14.242Z,16.2
2023-10-20T04:12:14.578Z,16.3
2023-10-20T04:13:14.196Z,16.3
2023-10-20T04:14:14.212Z,16.2
2023-10-20T04:15:14.197Z,16.3
2023-10-20T04:16:14.745Z,16.3
2023-10-20T04:17:14.556Z,16.2
2023-10-20T04:18:14.471Z,16.2
2023-10-20T04:19:14.208Z,16.2
2023-10-20T04:20:13.600Z,16.3
2023-10-20T04:21:14.225Z,16.3
2023-10-20T04:22:15.079Z,16.1
2023-10-20T04:23:15.136Z,16.2
2023-10-20T04:24:14.746Z,16.1
2023-10-20T04:25:14.211Z,16.2
2023-10-20T04:26:14.243Z,16.3
2023-10-20T04:28:14.402Z,16.1
2023-10-20T04:29:14.264Z,16.1
2023-10-20T04:30:14.997Z,16.2
2023-10-20T04:31:14.372Z,16.2
2023-10-20T04:32:14.265Z,16.2
2023-10-20T04:33:14.348Z,16
2023-10-20T04:34:14.177Z,16
2023-10-20T04:35:14.206Z,16
2023-10-20T04:36:14.242Z,16
2023-10-20T04:37:14.731Z,16.2
2023-10-20T04:38:14.200Z,16.1
2023-10-20T04:39:14.699Z,16.1
2023-10-20T04:40:14.225Z,16.2
2023-10-20T04:41:14.214Z,16.3
2023-10-20T04:42:14.172Z,16.1
2023-10-20T04:43:14.206Z,16
2023-10-20T04:44:14.975Z,16
2023-10-20T04:45:14.173Z,16.1
2023-10-20T04:46:14.207Z,16
2023-10-20T04:47:14.229Z,16
2023-10-20T04:48:14.423Z,16
2023-10-20T04:49:14.286Z,15.9
2023-10-20T04:50:13.544Z,15.9
2023-10-20T04:51:14.332Z,16
2023-10-20T04:52:14.248Z,15.9
2023-10-20T04:53:15.090Z,15.9
2023-10-20T04:54:14.762Z,15.8
2023-10-20T04:55:14.724Z,15.8
2023-10-20T04:56:14.899Z,15.9
2023-10-20T04:57:14.208Z,15.8
2023-10-20T04:58:14.824Z,15.8
2023-10-20T04:59:14.229Z,15.8
2023-10-20T05:00:14.185Z,15.8
2023-10-20T05:01:14.229Z,15.8
2023-10-20T05:02:14.705Z,15.8
2023-10-20T05:03:14.201Z,15.8
2023-10-20T05:04:14.193Z,15.9
2023-10-20T05:05:14.660Z,15.9
2023-10-20T05:06:14.192Z,15.8
2023-10-20T05:07:14.181Z,15.8
2023-10-20T05:08:14.254Z,15.9
2023-10-20T05:09:14.493Z,15.9
2023-10-20T05:10:14.190Z,15.9
2023-10-20T05:11:14.429Z,15.8
2023-10-20T05:12:14.170Z,15.9
2023-10-20T05:13:14.176Z,16
2023-10-20T05:14:14.917Z,15.9
2023-10-20T05:15:14.635Z,15.9
2023-10-20T05:16:14.211Z,15.9
2023-10-20T05:17:14.208Z,15.9
2023-10-20T05:18:15.476Z,15.9
2023-10-20T05:19:14.482Z,15.9
2023-10-20T05:20:13.869Z,15.9
2023-10-20T05:21:14.182Z,15.9
2023-10-20T05:22:14.676Z,16.1
2023-10-20T05:23:14.473Z,15.9
2023-10-20T05:24:14.360Z,15.9
2023-10-20T05:25:14.219Z,15.8
2023-10-20T05:26:14.200Z,15.8
2023-10-20T05:27:14.191Z,15.7
2023-10-20T05:28:14.184Z,15.7
2023-10-20T05:29:14.198Z,15.7
2023-10-20T05:30:14.164Z,15.8
2023-10-20T05:31:14.204Z,15.7
2023-10-20T05:32:14.226Z,15.7
2023-10-20T05:33:14.929Z,15.7
2023-10-20T05:34:14.935Z,15.8
2023-10-20T05:35:14.201Z,15.7
2023-10-20T05:36:14.881Z,15.6
2023-10-20T05:37:14.183Z,15.6
2023-10-20T05:38:14.778Z,15.7
2023-10-20T05:39:14.198Z,15.8
2023-10-20T05:40:14.207Z,15.8
2023-10-20T05:41:14.218Z,15.6
2023-10-20T05:42:14.183Z,15.7
2023-10-20T05:43:14.243Z,15.6
2023-10-20T05:44:14.316Z,15.7
2023-10-20T05:45:14.187Z,15.7
2023-10-20T05:46:14.205Z,15.5
2023-10-20T05:47:14.261Z,15.6
2023-10-20T05:48:14.344Z,15.6
2023-10-20T05:49:14.245Z,15.7
2023-10-20T05:50:13.355Z,15.7
2023-10-20T05:51:14.586Z,15.7
2023-10-20T05:52:14.209Z,15.8
2023-10-20T05:53:14.209Z,15.7
2023-10-20T05:54:14.368Z,15.6
2023-10-20T05:55:14.201Z,15.7
2023-10-20T05:56:14.486Z,15.8
2023-10-20T05:57:14.205Z,15.7
2023-10-20T05:58:14.310Z,15.7
2023-10-20T05:59:14.359Z,15.6
2023-10-20T06:00:14.217Z,15.6
2023-10-20T06:01:14.855Z,15.6
2023-10-20T06:02:14.240Z,15.6
2023-10-20T06:03:15.146Z,15.6
2023-10-20T06:04:14.979Z,15.6
2023-10-20T06:05:14.289Z,15.8
2023-10-20T06:06:14.208Z,15.7
2023-10-20T06:07:14.736Z,15.7
2023-10-20T06:08:14.473Z,15.7
2023-10-20T06:09:14.196Z,15.6
2023-10-20T06:10:14.200Z,15.7
2023-10-20T06:11:14.425Z,15.6
2023-10-20T06:12:14.928Z,15.6
2023-10-20T06:13:14.999Z,15.5
2023-10-20T06:14:14.205Z,15.6
2023-10-20T06:15:14.501Z,15.6
2023-10-20T06:16:15.032Z,15.5
2023-10-20T06:17:14.230Z,15.6
2023-10-20T06:18:25.272Z,15.6
2023-10-20T06:19:15.152Z,15.6
2023-10-20T06:20:13.878Z,15.5
2023-10-20T06:21:14.617Z,15.5
2023-10-20T06:22:14.384Z,15.4
2023-10-20T06:24:14.201Z,15.4
2023-10-20T06:25:14.645Z,15.4
2023-10-20T06:26:14.468Z,15.5
2023-10-20T06:27:14.746Z,15.4
2023-10-20T06:28:14.329Z,15.5
2023-10-20T06:29:14.358Z,15.5
2023-10-20T06:30:14.235Z,15.5
2023-10-20T06:31:14.230Z,15.4
2023-10-20T06:32:15.024Z,15.4
2023-10-20T06:33:14.364Z,15.4
2023-10-20T06:34:14.219Z,15.5
2023-10-20T06:35:14.256Z,15.5
2023-10-20T06:36:14.196Z,15.4
2023-10-20T06:37:14.984Z,15.6
2023-10-20T06:38:14.754Z,15.7
2023-10-20T06:39:14.811Z,15.6
2023-10-20T06:40:14.209Z,15.5
2023-10-20T06:41:14.699Z,15.6
2023-10-20T06:42:14.214Z,15.7
2023-10-20T06:43:14.208Z,15.6
2023-10-20T06:44:14.403Z,15.8
2023-10-20T06:45:14.237Z,15.6
2023-10-20T06:46:15.144Z,15.7
2023-10-20T06:47:14.222Z,15.5
2023-10-20T06:48:14.315Z,15.5
2023-10-20T06:49:14.195Z,15.4
2023-10-20T06:50:13.291Z,15.5
2023-10-20T06:51:14.243Z,15.4
2023-10-20T06:52:14.189Z,15.5
2023-10-20T06:53:14.215Z,15.4
2023-10-20T06:54:14.197Z,15.4
2023-10-20T06:56:16.731Z,15.5
2023-10-20T06:57:14.279Z,15.6
2023-10-20T06:58:14.714Z,15.5
2023-10-20T06:59:14.252Z,15.6
2023-10-20T07:00:14.299Z,15.6
2023-10-20T07:01:14.640Z,15.7
2023-10-20T07:02:14.595Z,15.5
2023-10-20T07:03:14.348Z,15.6
2023-10-20T07:04:15.279Z,15.6
2023-10-20T07:06:14.194Z,15.6
2023-10-20T07:07:14.200Z,15.6
2023-10-20T07:08:14.664Z,15.5
2023-10-20T07:09:14.195Z,15.6
2023-10-20T07:10:14.209Z,15.6
2023-10-20T07:11:14.267Z,15.5
2023-10-20T07:12:15.164Z,15.6
2023-10-20T07:13:14.993Z,15.6
2023-10-20T07:14:14.234Z,15.5
2023-10-20T07:15:14.764Z,15.6
2023-10-20T07:16:14.249Z,15.5
2023-10-20T07:17:15.065Z,15.5
2023-10-20T07:18:14.466Z,15.5
2023-10-20T07:19:14.512Z,15.5
2023-10-20T07:20:13.729Z,15.6
2023-10-20T07:21:14.313Z,15.5
2023-10-20T07:22:14.491Z,15.5
2023-10-20T07:23:14.471Z,15.5
2023-10-20T07:24:14.709Z,15.6
2023-10-20T07:25:14.601Z,15.6
2023-10-20T07:26:14.253Z,15.5
2023-10-20T07:27:14.209Z,15.4
2023-10-20T07:28:14.208Z,15.4
2023-10-20T07:29:14.233Z,15.3
2023-10-20T07:30:14.218Z,15.5
2023-10-20T07:31:14.755Z,15.6
2023-10-20T07:32:14.207Z,15.4
2023-10-20T07:33:15.096Z,15.5
2023-10-20T07:34:14.211Z,15.4
2023-10-20T07:35:14.345Z,15.4
2023-10-20T07:36:14.195Z,15.5
2023-10-20T07:37:14.263Z,15.5
2023-10-20T07:38:14.469Z,15.5
2023-10-20T07:39:14.221Z,15.5
2023-10-20T07:40:14.281Z,15.5
2023-10-20T07:42:14.263Z,15.6
2023-10-20T07:43:14.290Z,15.6
2023-10-20T07:44:14.539Z,15.7
2023-10-20T07:45:14.500Z,15.5
2023-10-20T07:46:14.652Z,15.4
2023-10-20T07:47:14.216Z,15.4
2023-10-20T07:48:14.430Z,15.4
2023-10-20T07:49:14.465Z,15.5
2023-10-20T07:50:13.759Z,15.4
2023-10-20T07:51:14.992Z,15.6
2023-10-20T07:52:14.252Z,15.4
2023-10-20T07:53:14.298Z,15.5
2023-10-20T07:54:14.975Z,15.4
2023-10-20T07:55:14.858Z,15.5
2023-10-20T07:56:14.721Z,15.5
2023-10-20T07:57:16.128Z,15.7
2023-10-20T07:58:14.778Z,15.6
2023-10-20T07:59:14.247Z,15.6
2023-10-20T08:00:14.803Z,15.6
2023-10-20T08:01:14.319Z,15.6
2023-10-20T08:02:14.348Z,15.5
2023-10-20T08:03:15.286Z,15.6
2023-10-20T08:04:15.098Z,15.7
2023-10-20T08:05:14.527Z,15.7
2023-10-20T08:06:15.453Z,15.7
2023-10-20T08:07:14.570Z,15.8
2023-10-20T08:08:14.280Z,15.7
2023-10-20T08:09:14.225Z,15.8
2023-10-20T08:10:14.284Z,15.7
2023-10-20T08:11:14.364Z,15.7
2023-10-20T08:12:15.757Z,15.7
2023-10-20T08:13:14.374Z,15.7
2023-10-20T08:14:14.298Z,15.7
2023-10-20T08:15:14.951Z,15.7
2023-10-20T08:16:14.587Z,15.8
2023-10-20T08:17:14.528Z,15.8
2023-10-20T08:18:14.855Z,15.7
2023-10-20T08:19:14.205Z,15.7
2023-10-20T08:20:13.728Z,15.8
2023-10-20T08:21:14.216Z,15.7
2023-10-20T08:22:14.215Z,15.8
2023-10-20T08:23:14.342Z,15.7
2023-10-20T08:24:14.320Z,15.7
2023-10-20T08:25:14.209Z,15.5
2023-10-20T08:26:14.289Z,15.5
2023-10-20T08:27:14.688Z,15.5
2023-10-20T08:28:14.370Z,15.6
2023-10-20T08:30:14.761Z,15.7
2023-10-20T08:31:14.246Z,15.7
2023-10-20T08:32:14.245Z,15.6
2023-10-20T08:33:13.388Z,15.7
2023-10-20T08:34:14.485Z,15.8
2023-10-20T08:35:14.362Z,15.9
2023-10-20T08:37:14.207Z,15.6
2023-10-20T08:38:14.237Z,15.6
2023-10-20T08:39:14.969Z,15.7
2023-10-20T08:40:14.226Z,15.7
2023-10-20T08:41:14.227Z,15.8
2023-10-20T08:42:14.242Z,15.6
2023-10-20T08:43:14.717Z,15.8
2023-10-20T08:44:14.442Z,15.8
2023-10-20T08:45:14.601Z,15.8
2023-10-20T08:46:14.971Z,15.8
2023-10-20T08:47:14.254Z,15.8
2023-10-20T08:48:15.187Z,15.7
2023-10-20T08:49:14.207Z,15.9
2023-10-20T08:50:13.698Z,15.8
2023-10-20T08:51:14.205Z,15.7
2023-10-20T08:52:14.975Z,15.7
2023-10-20T08:53:14.527Z,15.8
2023-10-20T08:54:14.221Z,15.9
2023-10-20T08:55:15.148Z,15.9
2023-10-20T08:56:14.692Z,15.8
2023-10-20T08:57:14.839Z,15.8
2023-10-20T08:58:14.516Z,15.8
2023-10-20T08:59:14.283Z,15.8
2023-10-20T09:00:14.229Z,15.9
2023-10-20T09:01:15.981Z,15.9
2023-10-20T09:02:14.264Z,15.9
2023-10-20T09:03:15.072Z,16
2023-10-20T09:04:15.226Z,15.9
2023-10-20T09:05:14.297Z,15.9
2023-10-20T09:06:14.222Z,16
2023-10-20T09:07:14.642Z,16
2023-10-20T09:08:15.052Z,15.9
2023-10-20T09:09:14.224Z,15.9
2023-10-20T09:10:14.674Z,15.9
2023-10-20T09:11:14.261Z,16
2023-10-20T09:12:14.602Z,15.8
2023-10-20T09:13:14.956Z,15.8
2023-10-20T09:14:14.278Z,15.8
2023-10-20T09:15:14.232Z,15.9
2023-10-20T09:16:14.300Z,15.9
2023-10-20T09:17:14.243Z,15.8
2023-10-20T09:18:14.320Z,15.9
2023-10-20T09:19:13.309Z,15.9
2023-10-20T09:20:13.750Z,15.9
2023-10-20T09:21:14.718Z,15.9
2023-10-20T09:22:14.515Z,16
2023-10-20T09:23:14.711Z,16
2023-10-20T09:24:14.715Z,16
2023-10-20T09:25:14.964Z,16
2023-10-20T09:26:14.665Z,16
2023-10-20T09:27:14.821Z,16.1
2023-10-20T09:28:14.236Z,16.1
2023-10-20T09:29:14.256Z,16.1
2023-10-20T09:30:14.224Z,16
2023-10-20T09:31:14.692Z,16
2023-10-20T09:32:14.228Z,16
2023-10-20T09:33:15.107Z,16
2023-10-20T09:34:14.676Z,16
2023-10-20T09:35:14.248Z,16
2023-10-20T09:36:14.244Z,16
2023-10-20T09:37:14.218Z,16
2023-10-20T09:38:14.331Z,16.1
2023-10-20T09:39:14.579Z,16.1
2023-10-20T09:40:14.711Z,16.1
2023-10-20T09:41:14.241Z,16.1
2023-10-20T09:42:14.941Z,16.1
2023-10-20T09:43:25.049Z,16.1
2023-10-20T09:44:14.862Z,16.1
2023-10-20T09:45:14.683Z,16.1
2023-10-20T09:46:14.350Z,16.1
2023-10-20T09:47:14.288Z,16
2023-10-20T09:48:14.711Z,16.1
2023-10-20T09:49:14.836Z,16.1
2023-10-20T09:50:14.013Z,16.1
2023-10-20T09:51:14.819Z,16
2023-10-20T09:52:14.645Z,16.1
2023-10-20T09:53:14.240Z,16.2
2023-10-20T09:54:14.620Z,16.2
2023-10-20T09:55:14.903Z,16.1
2023-10-20T09:56:15.214Z,16.1
2023-10-20T09:57:14.233Z,16.2
2023-10-20T09:58:14.248Z,16.2
2023-10-20T09:59:14.280Z,16.3
2023-10-20T10:00:14.241Z,16.2
2023-10-20T10:01:14.970Z,16.2
2023-10-20T10:02:15.227Z,16.2
2023-10-20T10:03:14.526Z,16.2
2023-10-20T10:04:14.299Z,16.1
2023-10-20T10:05:14.278Z,16.1
2023-10-20T10:06:14.302Z,16.1
2023-10-20T10:07:14.854Z,16.2
2023-10-20T10:08:14.922Z,16.3
2023-10-20T10:09:14.245Z,16.2
2023-10-20T10:10:14.825Z,16.1
2023-10-20T10:11:15.113Z,16.1
2023-10-20T10:12:14.238Z,16.1
2023-10-20T10:13:14.295Z,16.2
2023-10-20T10:14:14.875Z,16.2
2023-10-20T10:15:14.326Z,16.2
2023-10-20T10:16:14.983Z,16.3
2023-10-20T10:17:14.741Z,16.3
2023-10-20T10:18:14.342Z,16.2
2023-10-20T10:19:14.972Z,16.2
2023-10-20T10:20:13.397Z,16.3
2023-10-20T10:21:14.277Z,16.3
2023-10-20T10:23:15.158Z,16.2
2023-10-20T10:24:14.215Z,16.2
2023-10-20T10:25:14.622Z,16.3
2023-10-20T10:26:14.296Z,16.2
2023-10-20T10:27:14.321Z,16.2
2023-10-20T10:28:14.960Z,16.3
2023-10-20T10:29:16.231Z,16.2
2023-10-20T10:30:17.026Z,16.3
2023-10-20T10:31:14.721Z,16.4
2023-10-20T10:32:15.252Z,16.3
2023-10-20T10:33:14.279Z,16.3
2023-10-20T10:34:14.236Z,16.4
2023-10-20T10:35:14.384Z,16.3
2023-10-20T10:36:14.490Z,16.3
2023-10-20T10:37:14.245Z,16.3
2023-10-20T10:38:14.287Z,16.2
2023-10-20T10:39:14.236Z,16.3
2023-10-20T10:40:14.223Z,16.4
2023-10-20T10:41:14.422Z,16.3
2023-10-20T10:42:14.239Z,16.2
2023-10-20T10:43:14.283Z,16.3
2023-10-20T10:44:14.234Z,16.3
2023-10-20T10:45:14.641Z,16.2
2023-10-20T10:46:14.980Z,16.3
2023-10-20T10:47:14.555Z,16.3
2023-10-20T10:48:14.370Z,16.2
2023-10-20T10:49:14.381Z,16.2
2023-10-20T10:50:13.300Z,16.2
2023-10-20T10:51:14.776Z,16.2
2023-10-20T10:52:14.467Z,16.3
2023-10-20T10:53:14.731Z,16.3
2023-10-20T10:54:14.250Z,16.2
2023-10-20T10:55:15.197Z,16.1
2023-10-20T10:56:14.886Z,16.2
2023-10-20T10:57:13.306Z,16.1
2023-10-20T10:58:15.224Z,16.1
2023-10-20T10:59:15.256Z,16.1
2023-10-20T11:00:14.233Z,16.1
2023-10-20T11:01:14.270Z,16.2
2023-10-20T11:02:14.403Z,16.1
2023-10-20T11:03:14.070Z,16
2023-10-20T11:04:14.353Z,16.1
2023-10-20T11:05:14.993Z,16
2023-10-20T11:06:14.979Z,16
2023-10-20T11:07:14.293Z,16.1
2023-10-20T11:08:15.865Z,16.1
2023-10-20T11:09:17.423Z,16.1
2023-10-20T11:10:15.333Z,16.1
2023-10-20T11:11:14.237Z,16
2023-10-20T11:12:14.267Z,16.1
2023-10-20T11:13:14.247Z,16.1
2023-10-20T11:14:14.239Z,16
2023-10-20T11:15:15.232Z,16.1
2023-10-20T11:16:14.323Z,16.1
2023-10-20T11:17:14.224Z,16.1
2023-10-20T11:18:14.833Z,16
2023-10-20T11:19:14.254Z,16.2
2023-10-20T11:20:13.815Z,16.3
2023-10-20T11:21:14.624Z,16.2
2023-10-20T11:22:14.973Z,16.3
2023-10-20T11:23:15.102Z,16.3
2023-10-20T11:24:14.555Z,16.3
2023-10-20T11:25:15.015Z,16.3
2023-10-20T11:26:14.676Z,16.2
2023-10-20T11:27:14.254Z,16.3
2023-10-20T11:28:14.240Z,16.1
2023-10-20T11:29:14.655Z,16.1
2023-10-20T11:30:15.127Z,16
2023-10-20T11:31:14.414Z,15.9
2023-10-20T11:32:14.244Z,16.1
2023-10-20T11:33:16.842Z,16.1
2023-10-20T11:34:14.249Z,16.1
2023-10-20T11:35:14.772Z,16.1
2023-10-20T11:36:14.287Z,16
2023-10-20T11:37:14.253Z,16.1
2023-10-20T11:38:14.253Z,16.2
2023-10-20T11:39:14.678Z,16.2
2023-10-20T11:40:14.868Z,16.2
2023-10-20T11:41:14.262Z,16.1
2023-10-20T11:42:14.253Z,16
2023-10-20T11:43:14.521Z,16.1
2023-10-20T11:44:14.251Z,16
2023-10-20T11:45:14.470Z,16.2
2023-10-20T11:46:14.284Z,16.2
2023-10-20T11:47:14.252Z,16.1
2023-10-20T11:48:14.646Z,16.1
2023-10-20T11:49:14.265Z,16.1
2023-10-20T11:50:13.346Z,16.1
2023-10-20T11:51:15.034Z,16.1
2023-10-20T11:52:14.724Z,16.1
2023-10-20T11:53:14.252Z,16.1
2023-10-20T11:54:14.866Z,16.1
2023-10-20T11:55:14.271Z,16.1
2023-10-20T11:56:14.691Z,16.1
2023-10-20T11:57:14.256Z,16
2023-10-20T11:58:14.892Z,16.2
2023-10-20T11:59:15.052Z,16.1
2023-10-20T12:00:14.251Z,16.1
2023-10-20T12:01:14.422Z,16
2023-10-20T12:02:14.388Z,16.2
2023-10-20T12:03:14.414Z,16.1
2023-10-20T12:04:15.092Z,16
2023-10-20T12:05:14.269Z,16.1
2023-10-20T12:06:14.981Z,16.2
2023-10-20T12:07:14.270Z,16.2
2023-10-20T12:08:14.257Z,16.1
2023-10-20T12:09:15.207Z,16.1
2023-10-20T12:10:14.287Z,16.2
2023-10-20T12:11:15.150Z,16.1
2023-10-20T12:12:15.015Z,16.2
2023-10-20T12:13:14.249Z,16.2
2023-10-20T12:14:14.281Z,16.2
2023-10-20T12:15:14.269Z,16.2
2023-10-20T12:16:14.291Z,16.2
2023-10-20T12:17:14.327Z,16.3
2023-10-20T12:18:14.343Z,16.2
2023-10-20T12:19:14.266Z,16.3
2023-10-20T12:20:14.023Z,16.2
2023-10-20T12:21:14.661Z,16.2
2023-10-20T12:22:14.266Z,16.3
2023-10-20T12:23:14.913Z,16.3
2023-10-20T12:24:14.814Z,16.3
2023-10-20T12:25:14.280Z,16.3
2023-10-20T12:26:14.282Z,16.3
2023-10-20T12:27:15.221Z,16.4
2023-10-20T12:28:14.287Z,16.4
2023-10-20T12:29:14.277Z,16.3
2023-10-20T12:30:14.742Z,16.4
2023-10-20T12:31:14.347Z,16.4
2023-10-20T12:32:14.565Z,16.4
2023-10-20T12:33:13.448Z,16.4
2023-10-20T12:34:14.329Z,16.4
2023-10-20T12:35:14.282Z,16.5
2023-10-20T12:36:14.520Z,16.4
2023-10-20T12:37:15.179Z,16.3
2023-10-20T12:38:15.072Z,16.4
2023-10-20T12:39:14.262Z,16.3
2023-10-20T12:40:14.304Z,16.3
2023-10-20T12:41:14.823Z,16.3
2023-10-20T12:42:15.168Z,16.3
2023-10-20T12:43:15.123Z,16.3
2023-10-20T12:44:14.447Z,16.2
2023-10-20T12:45:14.278Z,16.2
2023-10-20T12:46:14.629Z,16.2
2023-10-20T12:47:15.006Z,16.3
2023-10-20T12:48:14.895Z,16.4
2023-10-20T12:49:15.402Z,16.3
2023-10-20T12:50:13.346Z,16.3
2023-10-20T12:51:14.350Z,16.3
2023-10-20T12:52:14.376Z,16.3
2023-10-20T12:53:14.285Z,16.3
2023-10-20T12:54:14.296Z,16.3
2023-10-20T12:56:14.269Z,16.2
2023-10-20T12:57:14.289Z,16.1
2023-10-20T12:58:14.274Z,16.1
2023-10-20T12:59:14.284Z,16.2
2023-10-20T13:00:14.277Z,16.2
2023-10-20T13:01:15.263Z,16.3
2023-10-20T13:02:14.433Z,16.2
2023-10-20T13:03:14.647Z,16.3
2023-10-20T13:04:14.367Z,16.2
2023-10-20T13:05:14.653Z,16.1
2023-10-20T13:06:14.585Z,16.2
2023-10-20T13:07:15.190Z,16.2
2023-10-20T13:08:14.281Z,16
2023-10-20T13:09:14.345Z,16.1
2023-10-20T13:11:14.273Z,16
2023-10-20T13:12:14.277Z,16.1
2023-10-20T13:13:16.590Z,16.1
2023-10-20T13:14:14.290Z,16.2
2023-10-20T13:15:14.282Z,16.2
2023-10-20T13:16:14.410Z,16.1
2023-10-20T13:17:14.313Z,16.2
2023-10-20T13:18:14.487Z,16.1
2023-10-20T13:19:15.270Z,16.1
2023-10-20T13:20:13.544Z,16.2
2023-10-20T13:21:14.802Z,16.2
2023-10-20T13:22:14.341Z,16.4
2023-10-20T13:23:14.994Z,16.3
2023-10-20T13:24:14.300Z,16.4
2023-10-20T13:25:15.486Z,16.3
2023-10-20T13:26:14.274Z,16.4
2023-10-20T13:27:15.141Z,16.4
2023-10-20T13:28:14.307Z,16.4
2023-10-20T13:29:15.127Z,16.4
2023-10-20T13:30:14.281Z,16.4
2023-10-20T13:32:14.902Z,16.4
2023-10-20T13:33:13.837Z,16.4
2023-10-20T13:34:14.289Z,16.4
2023-10-20T13:35:15.125Z,16.3